createdAt,value
2016-09-27T00:02:01.762Z,10.97
2016-09-27T00:03:01.783Z,10.91
2016-09-27T00:04:16.729Z,10.89
2016-09-27T00:05:01.826Z,10.89
2016-09-27T00:06:16.774Z,10.92
2016-09-27T00:07:01.880Z,10.94
2016-09-27T00:08:01.896Z,10.94
2016-09-27T00:09:01.919Z,10.96
2016-09-27T00:10:01.949Z,10.96
2016-09-27T00:11:01.961Z,10.89
2016-09-27T00:12:01.987Z,10.88
2016-09-27T00:14:17.009Z,10.86
2016-09-27T00:15:02.051Z,10.86
2016-09-27T00:16:02.073Z,10.89
2016-09-27T00:17:17.025Z,10.81
2016-09-27T00:18:02.119Z,10.71
2016-09-27T00:19:02.195Z,10.78
2016-09-27T00:20:02.167Z,10.71
2016-09-27T00:21:02.205Z,10.74
2016-09-27T00:22:17.132Z,10.74
2016-09-27T00:23:02.236Z,10.71
2016-09-27T00:24:02.259Z,10.71
2016-09-27T00:25:02.284Z,10.66
2016-09-27T00:26:02.310Z,10.64
2016-09-27T00:27:02.373Z,10.63
2016-09-27T00:28:02.349Z,10.66
2016-09-27T00:29:02.376Z,10.66
2016-09-27T00:30:02.399Z,10.61
2016-09-27T00:31:02.412Z,10.61
2016-09-27T00:32:02.441Z,10.63
2016-09-27T00:33:02.462Z,10.48
2016-09-27T00:34:17.406Z,10.51
2016-09-27T00:35:02.502Z,10.47
2016-09-27T00:36:02.527Z,10.44
2016-09-27T00:37:02.550Z,10.55
2016-09-27T00:38:17.494Z,10.41
2016-09-27T00:39:02.616Z,10.34
2016-09-27T00:40:02.615Z,10.42
2016-09-27T00:41:02.636Z,10.32
2016-09-27T00:42:02.667Z,10.29
2016-09-27T00:43:02.679Z,10.33
2016-09-27T00:44:02.708Z,10.38
2016-09-27T00:45:02.727Z,10.4
2016-09-27T00:46:02.753Z,10.4
2016-09-27T00:48:02.795Z,10.4
2016-09-27T00:49:03.121Z,10.4
2016-09-27T00:50:02.837Z,10.42
2016-09-27T00:51:02.862Z,10.47
2016-09-27T00:52:02.889Z,10.47
2016-09-27T00:53:17.829Z,10.38
2016-09-27T00:54:02.928Z,10.53
2016-09-27T00:55:02.952Z,10.59
2016-09-27T00:56:02.979Z,10.44
2016-09-27T00:57:03.299Z,10.45
2016-09-27T00:58:03.023Z,10.34
2016-09-27T00:59:03.041Z,10.33
2016-09-27T01:00:03.085Z,10.27
2016-09-27T01:01:03.085Z,10.27
2016-09-27T01:02:03.108Z,10.29
2016-09-27T01:03:03.130Z,10.23
2016-09-27T01:04:03.196Z,10.29
2016-09-27T01:05:03.201Z,10.3
2016-09-27T01:06:03.207Z,10.2
2016-09-27T01:07:03.520Z,10.18
2016-09-27T01:08:03.257Z,10.15
2016-09-27T01:09:03.269Z,10.22
2016-09-27T01:10:03.286Z,10.07
2016-09-27T01:11:03.312Z,10.09
2016-09-27T01:12:03.329Z,10.08
2016-09-27T01:13:03.355Z,10.08
2016-09-27T01:14:03.381Z,10.07
2016-09-27T01:15:03.454Z,10.05
2016-09-27T01:16:03.671Z,10.08
2016-09-27T01:17:03.452Z,9.94
2016-09-27T01:18:03.469Z,9.99
2016-09-27T01:19:03.488Z,9.94
2016-09-27T01:20:03.513Z,9.94
2016-09-27T01:21:03.531Z,9.97
2016-09-27T01:22:03.557Z,9.96
2016-09-27T01:23:03.584Z,9.94
2016-09-27T01:24:03.609Z,9.96
2016-09-27T01:25:18.548Z,9.94
2016-09-27T01:26:03.646Z,9.94
2016-09-27T01:27:03.668Z,9.84
2016-09-27T01:28:18.606Z,9.83
2016-09-27T01:29:03.760Z,9.89
2016-09-27T01:30:03.729Z,9.87
2016-09-27T01:31:03.752Z,9.74
2016-09-27T01:32:03.777Z,9.74
2016-09-27T01:33:03.798Z,9.74
2016-09-27T01:35:03.854Z,9.69
2016-09-27T01:39:18.860Z,9.75
2016-09-27T01:40:03.954Z,9.74
2016-09-27T01:41:18.899Z,9.72
2016-09-27T01:42:18.919Z,9.68
2016-09-27T01:43:04.021Z,9.69
2016-09-27T01:44:04.040Z,9.65
2016-09-27T01:45:04.071Z,9.66
2016-09-27T01:46:04.085Z,9.6
2016-09-27T01:47:04.108Z,9.66
2016-09-27T01:48:04.127Z,9.57
2016-09-27T01:49:04.154Z,9.58
2016-09-27T01:50:04.182Z,9.51
2016-09-27T01:51:04.199Z,9.48
2016-09-27T01:52:04.215Z,9.4
2016-09-27T01:54:04.268Z,9.4
2016-09-27T01:55:04.293Z,9.46
2016-09-27T01:56:04.303Z,9.47
2016-09-27T01:57:19.248Z,9.42
2016-09-27T01:58:04.403Z,9.38
2016-09-27T02:00:04.400Z,9.42
2016-09-27T02:01:04.414Z,9.35
2016-09-27T02:02:04.440Z,9.39
2016-09-27T02:03:04.454Z,9.33
2016-09-27T02:04:04.482Z,9.32
2016-09-27T02:05:04.505Z,9.33
2016-09-27T02:06:04.525Z,9.33
2016-09-27T02:07:04.554Z,9.39
2016-09-27T02:08:04.618Z,9.35
2016-09-27T02:09:04.697Z,9.42
2016-09-27T02:10:04.611Z,9.35
2016-09-27T02:11:04.636Z,9.31
2016-09-27T02:12:04.667Z,9.35
2016-09-27T02:13:19.600Z,9.33
2016-09-27T02:14:04.702Z,9.38
2016-09-27T02:15:04.719Z,9.24
2016-09-27T02:16:04.743Z,9.24
2016-09-27T02:17:04.764Z,9.24
2016-09-27T02:19:04.808Z,9.28
2016-09-27T02:20:04.830Z,9.36
2016-09-27T02:21:04.848Z,9.33
2016-09-27T02:22:04.876Z,9.33
2016-09-27T02:23:04.901Z,9.35
2016-09-27T02:24:04.924Z,9.32
2016-09-27T02:25:19.866Z,9.39
2016-09-27T02:26:19.885Z,9.35
2016-09-27T02:27:04.987Z,9.29
2016-09-27T02:28:19.976Z,9.36
2016-09-27T02:29:05.031Z,9.32
2016-09-27T02:30:05.048Z,9.31
2016-09-27T02:32:05.091Z,9.26
2016-09-27T02:33:05.114Z,9.32
2016-09-27T02:34:05.133Z,9.29
2016-09-27T02:35:05.161Z,9.35
2016-09-27T02:36:05.183Z,9.32
2016-09-27T02:37:05.200Z,9.36
2016-09-27T02:38:05.221Z,9.32
2016-09-27T02:39:05.245Z,9.28
2016-09-27T02:40:20.191Z,9.23
2016-09-27T02:41:20.214Z,9.24
2016-09-27T02:42:05.323Z,9.23
2016-09-27T02:43:05.327Z,9.29
2016-09-27T02:44:05.353Z,9.21
2016-09-27T02:45:05.378Z,9.21
2016-09-27T02:46:05.394Z,9.36
2016-09-27T02:47:05.415Z,9.26
2016-09-27T02:48:05.455Z,9.23
2016-09-27T02:49:05.464Z,9.31
2016-09-27T02:50:05.486Z,9.28
2016-09-27T02:51:05.506Z,9.28
2016-09-27T02:52:05.526Z,9.4
2016-09-27T02:53:05.552Z,9.32
2016-09-27T02:54:05.577Z,9.39
2016-09-27T02:56:05.611Z,9.39
2016-09-27T02:57:05.639Z,9.31
2016-09-27T02:58:05.666Z,9.51
2016-09-27T02:59:05.680Z,9.35
2016-09-27T03:00:20.624Z,9.35
2016-09-27T03:01:05.724Z,9.42
2016-09-27T03:02:05.747Z,9.39
2016-09-27T03:03:06.063Z,9.38
2016-09-27T03:04:05.786Z,9.24
2016-09-27T03:05:05.807Z,9.21
2016-09-27T03:06:05.835Z,9.26
2016-09-27T03:07:05.858Z,9.18
2016-09-27T03:08:05.933Z,9.08
2016-09-27T03:09:05.897Z,9.1
2016-09-27T03:10:05.920Z,9.13
2016-09-27T03:11:05.946Z,9.05
2016-09-27T03:12:05.965Z,9.1
2016-09-27T03:13:05.979Z,9.11
2016-09-27T03:14:06.017Z,9.17
2016-09-27T03:15:06.027Z,9.18
2016-09-27T03:16:20.968Z,9.08
2016-09-27T03:17:06.374Z,9.17
2016-09-27T03:18:06.091Z,9.04
2016-09-27T03:19:06.110Z,9.1
2016-09-27T03:20:06.135Z,9.05
2016-09-27T03:21:06.163Z,9.04
2016-09-27T03:22:06.178Z,9.21
2016-09-27T03:23:06.250Z,9.17
2016-09-27T03:24:06.219Z,9.15
2016-09-27T03:25:06.248Z,9.2
2016-09-27T03:26:06.268Z,9.24
2016-09-27T03:27:06.288Z,9.26
2016-09-27T03:28:06.364Z,9.36
2016-09-27T03:29:06.332Z,9.38
2016-09-27T03:30:06.358Z,9.29
2016-09-27T03:31:21.295Z,9.32
2016-09-27T03:32:21.322Z,9.24
2016-09-27T03:33:06.422Z,9.35
2016-09-27T03:34:06.442Z,9.33
2016-09-27T03:35:06.463Z,9.36
2016-09-27T03:36:06.480Z,9.39
2016-09-27T03:37:06.503Z,9.36
2016-09-27T03:38:06.527Z,9.39
2016-09-27T03:39:06.547Z,9.4
2016-09-27T03:40:06.572Z,9.42
2016-09-27T03:41:06.593Z,9.35
2016-09-27T03:42:06.624Z,9.29
2016-09-27T03:43:06.637Z,9.36
2016-09-27T03:44:06.656Z,9.38
2016-09-27T03:45:06.681Z,9.4
2016-09-27T03:47:06.717Z,9.33
2016-09-27T03:48:21.669Z,9.28
2016-09-27T03:49:06.768Z,9.29
2016-09-27T03:50:06.834Z,9.24
2016-09-27T03:51:06.812Z,9.15
2016-09-27T03:52:06.830Z,9.23
2016-09-27T03:53:06.848Z,9.1
2016-09-27T03:54:06.873Z,9.02
2016-09-27T03:55:06.898Z,9.02
2016-09-27T03:56:06.914Z,9.01
2016-09-27T03:57:06.940Z,9.05
2016-09-27T03:58:06.960Z,9.02
2016-09-27T04:00:06.996Z,9.05
2016-09-27T04:01:07.026Z,9.01
2016-09-27T04:03:21.993Z,8.92
2016-09-27T04:04:07.095Z,8.96
2016-09-27T04:05:07.107Z,8.98
2016-09-27T04:06:07.133Z,8.95
2016-09-27T04:07:07.159Z,8.94
2016-09-27T04:08:07.176Z,9.02
2016-09-27T04:09:07.200Z,9.01
2016-09-27T04:10:07.219Z,8.99
2016-09-27T04:11:07.255Z,8.98
2016-09-27T04:12:07.264Z,8.98
2016-09-27T04:13:07.279Z,8.99
2016-09-27T04:15:07.334Z,9.11
2016-09-27T04:16:07.363Z,9.05
2016-09-27T04:17:22.292Z,9.11
2016-09-27T04:19:07.461Z,9.05
2016-09-27T04:20:07.434Z,9.08
2016-09-27T04:21:07.501Z,9.1
2016-09-27T04:22:07.474Z,8.99
2016-09-27T04:23:07.500Z,9.08
2016-09-27T04:24:07.517Z,9.04
2016-09-27T04:25:07.539Z,8.96
2016-09-27T04:26:07.569Z,8.94
2016-09-27T04:27:07.582Z,8.98
2016-09-27T04:28:07.609Z,8.96
2016-09-27T04:29:07.624Z,8.95
2016-09-27T04:30:07.646Z,8.99
2016-09-27T04:31:07.672Z,8.92
2016-09-27T04:32:07.691Z,8.98
2016-09-27T04:33:07.713Z,9.04
2016-09-27T04:34:07.731Z,9.04
2016-09-27T04:35:22.679Z,9.02
2016-09-27T04:36:07.777Z,9.11
2016-09-27T04:37:07.797Z,8.95
2016-09-27T04:38:07.816Z,8.98
2016-09-27T04:39:07.838Z,8.99
2016-09-27T04:40:07.871Z,8.86
2016-09-27T04:41:07.886Z,8.96
2016-09-27T04:42:08.204Z,8.81
2016-09-27T04:43:07.926Z,8.87
2016-09-27T04:44:07.947Z,8.84
2016-09-27T04:45:07.967Z,8.87
2016-09-27T04:46:07.992Z,8.91
2016-09-27T04:47:08.007Z,8.84
2016-09-27T04:48:08.029Z,8.98
2016-09-27T04:49:08.049Z,8.95
2016-09-27T04:50:08.081Z,8.91
2016-09-27T04:51:23.020Z,8.95
2016-09-27T04:52:23.038Z,8.98
2016-09-27T04:53:23.056Z,9.05
2016-09-27T04:54:08.164Z,9.08
2016-09-27T04:55:08.178Z,8.99
2016-09-27T04:56:08.198Z,9.01
2016-09-27T04:57:08.225Z,8.98
2016-09-27T04:58:08.247Z,8.96
2016-09-27T04:59:08.261Z,8.95
2016-09-27T05:00:08.290Z,8.87
2016-09-27T05:02:08.330Z,8.86
2016-09-27T05:03:23.275Z,8.86
2016-09-27T05:04:08.372Z,8.86
2016-09-27T05:05:08.396Z,8.92
2016-09-27T05:06:23.336Z,8.91
2016-09-27T05:07:23.357Z,8.84
2016-09-27T05:08:08.461Z,8.96
2016-09-27T05:09:08.481Z,8.94
2016-09-27T05:10:08.505Z,9.05
2016-09-27T05:11:08.536Z,8.95
2016-09-27T05:12:08.542Z,9.01
2016-09-27T05:13:08.566Z,8.98
2016-09-27T05:14:08.589Z,9.1
2016-09-27T05:15:08.601Z,8.96
2016-09-27T05:16:08.625Z,9.02
2016-09-27T05:17:08.646Z,9.13
2016-09-27T05:18:08.667Z,9.05
2016-09-27T05:19:08.691Z,9.04
2016-09-27T05:20:08.712Z,9.17
2016-09-27T05:21:08.737Z,9.18
2016-09-27T05:22:08.904Z,9.11
2016-09-27T05:23:23.704Z,9.1
2016-09-27T05:24:23.719Z,9.26
2016-09-27T05:25:08.825Z,9.33
2016-09-27T05:26:08.890Z,9.32
2016-09-27T05:27:08.866Z,9.2
2016-09-27T05:28:08.885Z,9.35
2016-09-27T05:29:08.904Z,9.32
2016-09-27T05:30:08.929Z,9.4
2016-09-27T05:31:08.949Z,9.38
2016-09-27T05:33:08.995Z,9.43
2016-09-27T05:34:09.014Z,9.42
2016-09-27T05:35:09.192Z,9.5
2016-09-27T05:36:09.059Z,9.57
2016-09-27T05:37:09.080Z,9.6
2016-09-27T05:38:24.028Z,9.43
2016-09-27T05:39:09.124Z,9.42
2016-09-27T05:40:24.066Z,9.42
2016-09-27T05:41:09.167Z,9.42
2016-09-27T05:42:09.192Z,9.43
2016-09-27T05:43:09.210Z,9.5
2016-09-27T05:44:09.235Z,9.48
2016-09-27T05:45:09.254Z,9.51
2016-09-27T05:46:09.290Z,9.6
2016-09-27T05:47:09.299Z,9.64
2016-09-27T05:48:09.320Z,9.57
2016-09-27T05:49:24.267Z,9.69
2016-09-27T05:50:09.364Z,9.78
2016-09-27T05:51:09.384Z,9.89
2016-09-27T05:52:09.405Z,10.14
2016-09-27T05:53:09.431Z,10.26
2016-09-27T05:54:24.374Z,10.51
2016-09-27T05:55:24.396Z,10.74
2016-09-27T05:56:09.500Z,10.86
2016-09-27T05:58:09.594Z,11.15
2016-09-27T05:59:09.572Z,11.32
2016-09-27T06:00:09.595Z,11.46
2016-09-27T06:01:09.626Z,11.51
2016-09-27T06:02:09.648Z,11.73
2016-09-27T06:03:09.682Z,11.86
2016-09-27T06:05:09.720Z,12.12
2016-09-27T06:06:09.740Z,12.17
2016-09-27T06:07:09.767Z,12.37
2016-09-27T06:08:09.794Z,12.49
2016-09-27T06:09:24.742Z,12.64
2016-09-27T06:10:24.768Z,12.72
2016-09-27T06:11:09.879Z,12.87
2016-09-27T06:12:09.902Z,12.82
2016-09-27T06:13:09.920Z,12.92
2016-09-27T06:14:09.952Z,13
2016-09-27T06:15:09.979Z,13.2
2016-09-27T06:16:10.007Z,13.22
2016-09-27T06:17:10.031Z,13.32
2016-09-27T06:18:10.056Z,13.46
2016-09-27T06:19:10.086Z,13.57
2016-09-27T06:20:10.164Z,13.64
2016-09-27T06:22:10.166Z,13.71
2016-09-27T06:23:25.122Z,13.84
2016-09-27T06:24:25.152Z,13.97
2016-09-27T06:26:25.204Z,14.14
2016-09-27T06:27:10.317Z,14.33
2016-09-27T06:28:10.336Z,14.35
2016-09-27T06:29:10.376Z,14.4
2016-09-27T06:30:40.245Z,14.33
2016-09-27T06:31:10.428Z,14.45
2016-09-27T06:32:10.453Z,14.35
2016-09-27T06:33:10.485Z,14.46
2016-09-27T06:34:10.532Z,14.52
2016-09-27T06:35:10.542Z,14.64
2016-09-27T06:36:10.575Z,14.65
2016-09-27T06:38:25.562Z,14.77
2016-09-27T06:39:25.591Z,14.89
2016-09-27T06:40:10.699Z,14.96
2016-09-27T06:42:19.013Z,15.06
2016-09-27T06:43:33.966Z,14.98
2016-09-27T06:44:33.995Z,15.1
2016-09-27T06:45:19.105Z,15.29
2016-09-27T06:47:42.350Z,15.49
2016-09-27T06:48:42.391Z,15.56
2016-09-27T06:49:27.480Z,15.59
2016-09-27T06:50:27.515Z,15.59
2016-09-27T06:51:27.547Z,15.71
2016-09-27T06:52:27.579Z,15.72
2016-09-27T06:53:27.618Z,15.64
2016-09-27T06:54:27.641Z,15.68
2016-09-27T06:55:27.675Z,15.62
2016-09-27T06:56:57.553Z,15.78
2016-09-27T06:57:27.735Z,15.82
2016-09-27T06:58:27.779Z,15.94
2016-09-27T06:59:27.800Z,15.93
2016-09-27T07:00:27.828Z,16.02
2016-09-27T07:01:27.859Z,16.09
2016-09-27T07:02:27.899Z,16.07
2016-09-27T07:03:27.925Z,16.07
2016-09-27T07:04:27.956Z,16.12
2016-09-27T07:05:27.992Z,16.07
2016-09-27T07:06:28.019Z,16.08
2016-09-27T07:07:28.054Z,16.05
2016-09-27T07:08:28.085Z,16.23
2016-09-27T07:09:28.118Z,16.46
2016-09-27T07:10:28.146Z,16.46
2016-09-27T07:11:28.181Z,16.38
2016-09-27T07:12:28.212Z,16.45
2016-09-27T07:13:28.245Z,16.52
2016-09-27T07:14:28.284Z,16.48
2016-09-27T07:16:28.343Z,16.64
2016-09-27T07:17:43.296Z,16.58
2016-09-27T07:18:28.405Z,16.58
2016-09-27T07:19:28.435Z,16.7
2016-09-27T07:20:43.385Z,16.88
2016-09-27T07:21:28.498Z,17.04
2016-09-27T07:22:28.527Z,16.93
2016-09-27T07:23:28.566Z,17.06
2016-09-27T07:24:28.594Z,16.86
2016-09-27T07:25:28.625Z,17.06
2016-09-27T07:26:28.652Z,17.06
2016-09-27T07:27:28.689Z,17.21
2016-09-27T07:28:28.717Z,17.38
2016-09-27T07:29:28.767Z,17.36
2016-09-27T07:30:28.779Z,17.54
2016-09-27T07:31:28.813Z,17.64
2016-09-27T07:33:28.882Z,17.84
2016-09-27T07:34:28.915Z,17.89
2016-09-27T07:35:43.864Z,18.17
2016-09-27T07:36:43.899Z,17.96
2016-09-27T07:37:29.008Z,18.2
2016-09-27T07:38:29.049Z,18.27
2016-09-27T07:39:29.062Z,18.37
2016-09-27T07:40:29.098Z,18.26
2016-09-27T07:41:29.126Z,18.32
2016-09-27T07:42:29.165Z,18.37
2016-09-27T07:43:29.292Z,18.62
2016-09-27T07:44:29.224Z,18.62
2016-09-27T07:45:29.256Z,18.48
2016-09-27T07:46:29.286Z,18.57
2016-09-27T07:47:29.313Z,18.65
2016-09-27T07:48:29.346Z,18.51
2016-09-27T07:49:29.378Z,18.67
2016-09-27T07:50:29.411Z,18.69
2016-09-27T07:51:44.366Z,18.69
2016-09-27T07:52:44.396Z,18.69
2016-09-27T07:53:29.502Z,18.73
2016-09-27T07:54:29.544Z,18.67
2016-09-27T07:55:29.567Z,19.02
2016-09-27T07:56:29.595Z,19.13
2016-09-27T07:57:29.629Z,19.18
2016-09-27T07:58:29.652Z,19.23
2016-09-27T07:59:29.693Z,19.19
2016-09-27T08:00:29.727Z,19.31
2016-09-27T08:01:29.751Z,19.47
2016-09-27T08:02:29.831Z,19.44
2016-09-27T08:03:29.809Z,19.54
2016-09-27T08:04:29.854Z,19.62
2016-09-27T08:06:30.004Z,19.78
2016-09-27T08:07:29.933Z,19.76
2016-09-27T08:08:44.895Z,19.74
2016-09-27T08:09:30.246Z,19.77
2016-09-27T08:10:30.029Z,19.74
2016-09-27T08:11:30.055Z,19.74
2016-09-27T08:12:30.092Z,19.74
2016-09-27T08:13:30.126Z,19.76
2016-09-27T08:14:30.144Z,19.77
2016-09-27T08:15:30.184Z,20.03
2016-09-27T08:16:30.209Z,20.17
2016-09-27T08:17:30.243Z,19.99
2016-09-27T08:18:30.280Z,19.74
2016-09-27T08:19:30.307Z,19.65
2016-09-27T08:20:45.264Z,19.78
2016-09-27T08:21:30.366Z,19.76
2016-09-27T08:22:30.397Z,20.02
2016-09-27T08:23:45.356Z,20.18
2016-09-27T08:24:30.462Z,20.14
2016-09-27T08:25:45.412Z,20.24
2016-09-27T08:26:30.526Z,20.28
2016-09-27T08:27:30.549Z,20.32
2016-09-27T08:28:30.581Z,20.17
2016-09-27T08:29:30.917Z,20.14
2016-09-27T08:30:30.648Z,20.29
2016-09-27T08:32:30.704Z,20.74
2016-09-27T08:33:30.732Z,20.77
2016-09-27T08:34:30.764Z,20.82
2016-09-27T08:35:30.791Z,20.62
2016-09-27T08:36:30.824Z,20.77
2016-09-27T08:37:30.860Z,20.42
2016-09-27T08:38:30.899Z,20.5
2016-09-27T08:39:30.917Z,20.58
2016-09-27T08:40:45.870Z,20.74
2016-09-27T08:41:30.981Z,20.59
2016-09-27T08:42:31.010Z,20.64
2016-09-27T08:43:31.044Z,20.88
2016-09-27T08:44:31.071Z,20.95
2016-09-27T08:45:31.100Z,21.24
2016-09-27T08:46:31.130Z,21.19
2016-09-27T08:47:31.163Z,21.13
2016-09-27T08:48:31.202Z,21.04
2016-09-27T08:50:31.255Z,21.24
2016-09-27T08:51:31.292Z,21.31
2016-09-27T08:52:31.312Z,21.27
2016-09-27T08:53:31.341Z,21.49
2016-09-27T08:54:31.383Z,21.47
2016-09-27T08:55:46.336Z,21.37
2016-09-27T08:56:31.445Z,21.49
2016-09-27T08:57:31.473Z,21.42
2016-09-27T08:58:31.503Z,21.4
2016-09-27T09:00:46.733Z,21.52
2016-09-27T09:01:31.587Z,21.47
2016-09-27T09:02:31.626Z,21.4
2016-09-27T09:03:31.653Z,21.65
2016-09-27T09:04:31.681Z,21.75
2016-09-27T09:05:31.712Z,21.65
2016-09-27T09:07:31.778Z,21.56
2016-09-27T09:08:31.801Z,21.59
2016-09-27T09:09:31.831Z,21.44
2016-09-27T09:10:31.869Z,21.4
2016-09-27T09:11:46.823Z,21.38
2016-09-27T09:12:31.926Z,21.35
2016-09-27T09:13:31.954Z,21.38
2016-09-27T09:14:31.983Z,21.42
2016-09-27T09:15:32.020Z,21.35
2016-09-27T09:16:32.048Z,21.65
2016-09-27T09:17:32.083Z,21.9
2016-09-27T09:18:32.114Z,21.99
2016-09-27T09:19:32.137Z,21.94
2016-09-27T09:20:32.171Z,21.88
2016-09-27T09:21:32.211Z,21.8
2016-09-27T09:22:32.232Z,21.82
2016-09-27T09:24:47.215Z,21.53
2016-09-27T09:25:32.317Z,21.65
2016-09-27T09:26:47.277Z,21.8
2016-09-27T09:27:47.303Z,21.94
2016-09-27T09:28:47.335Z,22.03
2016-09-27T09:29:32.445Z,22.05
2016-09-27T09:30:32.476Z,22.12
2016-09-27T09:31:32.502Z,22.17
2016-09-27T09:32:32.538Z,22.35
2016-09-27T09:33:32.559Z,22.7
2016-09-27T09:34:32.590Z,22.8
2016-09-27T09:35:32.628Z,22.95
2016-09-27T09:36:32.652Z,22.88
2016-09-27T09:37:32.689Z,22.58
2016-09-27T09:38:32.722Z,22.75
2016-09-27T09:39:32.746Z,22.77
2016-09-27T09:40:32.772Z,22.94
2016-09-27T09:41:32.814Z,22.95
2016-09-27T09:42:32.840Z,22.95
2016-09-27T09:43:47.797Z,22.95
2016-09-27T09:44:32.901Z,22.97
2016-09-27T09:45:32.936Z,22.72
2016-09-27T09:46:32.960Z,22.6
2016-09-27T09:47:32.987Z,22.42
2016-09-27T09:48:33.023Z,22.6
2016-09-27T09:49:33.055Z,22.67
2016-09-27T09:50:33.082Z,22.57
2016-09-27T09:51:33.112Z,22.61
2016-09-27T09:52:33.146Z,22.49
2016-09-27T09:53:33.174Z,22.67
2016-09-27T09:54:48.128Z,22.9
2016-09-27T09:55:33.234Z,22.77
2016-09-27T09:56:33.263Z,22.73
2016-09-27T09:57:33.294Z,22.7
2016-09-27T09:58:48.250Z,22.7
2016-09-27T10:00:33.386Z,22.45
2016-09-27T10:01:48.339Z,22.06
2016-09-27T10:02:33.450Z,22.09
2016-09-27T10:03:33.471Z,22.05
2016-09-27T10:04:33.510Z,21.99
2016-09-27T10:05:33.536Z,22.1
2016-09-27T10:07:33.595Z,21.68
2016-09-27T10:08:33.624Z,21.5
2016-09-27T10:09:33.661Z,21.42
2016-09-27T10:10:48.612Z,21.38
2016-09-27T10:11:33.712Z,21.35
2016-09-27T10:12:33.747Z,21.32
2016-09-27T10:13:33.779Z,21.35
2016-09-27T10:14:48.728Z,21.38
2016-09-27T10:15:33.840Z,21.52
2016-09-27T10:16:33.861Z,21.52
2016-09-27T10:17:33.900Z,21.47
2016-09-27T10:18:33.920Z,21.54
2016-09-27T10:19:33.953Z,21.61
2016-09-27T10:20:33.986Z,21.82
2016-09-27T10:21:34.016Z,21.61
2016-09-27T10:22:34.041Z,21.4
2016-09-27T10:23:34.072Z,21.34
2016-09-27T10:24:34.109Z,21.43
2016-09-27T10:25:34.127Z,21.53
2016-09-27T10:26:34.157Z,21.56
2016-09-27T10:27:34.192Z,21.59
2016-09-27T10:28:34.510Z,21.62
2016-09-27T10:29:34.251Z,21.8
2016-09-27T10:30:49.193Z,21.98
2016-09-27T10:31:34.306Z,21.86
2016-09-27T10:32:34.332Z,21.99
2016-09-27T10:33:34.359Z,21.96
2016-09-27T10:34:34.392Z,21.82
2016-09-27T10:35:34.418Z,21.9
2016-09-27T10:36:34.451Z,22.12
2016-09-27T10:37:34.475Z,21.99
2016-09-27T10:38:34.503Z,21.99
2016-09-27T10:39:34.940Z,22.03
2016-09-27T10:40:34.557Z,21.98
2016-09-27T10:41:34.579Z,22.12
2016-09-27T10:42:34.616Z,22.02
2016-09-27T10:43:49.570Z,22.12
2016-09-27T10:44:34.685Z,22.1
2016-09-27T10:45:49.622Z,22.12
2016-09-27T10:46:49.652Z,22
2016-09-27T10:47:34.754Z,22.12
2016-09-27T10:48:34.940Z,22.27
2016-09-27T10:49:34.816Z,22.15
2016-09-27T10:50:34.848Z,22.3
2016-09-27T10:51:34.870Z,22.15
2016-09-27T10:52:34.897Z,21.86
2016-09-27T10:53:34.929Z,21.75
2016-09-27T10:54:34.952Z,21.8
2016-09-27T10:55:34.976Z,21.82
2016-09-27T10:57:35.034Z,21.84
2016-09-27T10:58:35.070Z,21.84
2016-09-27T10:59:50.021Z,21.9
2016-09-27T11:00:35.118Z,21.86
2016-09-27T11:01:35.149Z,21.86
2016-09-27T11:02:50.102Z,21.91
2016-09-27T11:03:35.206Z,21.98
2016-09-27T11:04:35.245Z,22.02
2016-09-27T11:05:35.269Z,22.03
2016-09-27T11:06:35.289Z,22.05
2016-09-27T11:07:35.325Z,22
2016-09-27T11:08:35.344Z,22
2016-09-27T11:09:35.373Z,21.8
2016-09-27T11:10:35.399Z,21.67
2016-09-27T11:11:35.424Z,21.58
2016-09-27T11:12:35.455Z,21.74
2016-09-27T11:13:35.483Z,21.84
2016-09-27T11:15:50.463Z,21.49
2016-09-27T11:17:35.591Z,21.56
2016-09-27T11:18:50.540Z,21.77
2016-09-27T11:19:50.569Z,21.94
2016-09-27T11:20:35.674Z,21.91
2016-09-27T11:21:35.701Z,21.8
2016-09-27T11:22:35.727Z,21.62
2016-09-27T11:23:35.757Z,21.61
2016-09-27T11:24:35.785Z,21.59
2016-09-27T11:26:35.836Z,21.65
2016-09-27T11:27:35.862Z,21.72
2016-09-27T11:28:35.891Z,21.72
2016-09-27T11:29:35.917Z,21.75
2016-09-27T11:30:35.948Z,21.8
2016-09-27T11:31:35.981Z,21.83
2016-09-27T11:32:35.998Z,21.8
2016-09-27T11:33:50.957Z,21.94
2016-09-27T11:34:36.055Z,22.06
2016-09-27T11:35:36.086Z,22.2
2016-09-27T11:36:36.111Z,22.02
2016-09-27T11:37:36.140Z,22.1
2016-09-27T11:38:36.171Z,22.06
2016-09-27T11:39:36.204Z,22.1
2016-09-27T11:40:36.218Z,22.06
2016-09-27T11:41:36.258Z,22.1
2016-09-27T11:42:36.279Z,21.84
2016-09-27T11:43:36.305Z,21.82
2016-09-27T11:44:36.358Z,21.75
2016-09-27T11:45:36.375Z,21.74
2016-09-27T11:46:51.312Z,21.67
2016-09-27T11:47:36.417Z,21.8
2016-09-27T11:48:36.436Z,21.94
2016-09-27T11:49:36.467Z,21.91
2016-09-27T11:50:37.501Z,22
2016-09-27T11:51:36.672Z,22.17
2016-09-27T11:52:36.565Z,22.17
2016-09-27T11:53:36.573Z,22.2
2016-09-27T11:54:36.595Z,22.24
2016-09-27T11:55:36.635Z,22.35
2016-09-27T11:56:36.663Z,22.4
2016-09-27T11:57:36.687Z,22.33
2016-09-27T11:58:36.715Z,22.22
2016-09-27T11:59:36.837Z,22.24
2016-09-27T12:00:36.762Z,22.09
2016-09-27T12:01:36.797Z,22.03
2016-09-27T12:02:36.821Z,22.09
2016-09-27T12:03:36.847Z,22.14
2016-09-27T12:04:36.890Z,21.99
2016-09-27T12:05:51.830Z,21.94
2016-09-27T12:07:36.957Z,21.84
2016-09-27T12:08:36.980Z,21.96
2016-09-27T12:09:37.016Z,22.15
2016-09-27T12:10:37.041Z,22.09
2016-09-27T12:11:37.068Z,22.12
2016-09-27T12:12:37.095Z,21.88
2016-09-27T12:13:37.415Z,21.8
2016-09-27T12:14:37.152Z,21.56
2016-09-27T12:15:37.175Z,21.58
2016-09-27T12:16:37.501Z,21.59
2016-09-27T12:17:37.533Z,21.68
2016-09-27T12:18:52.181Z,21.8
2016-09-27T12:20:37.315Z,21.75
2016-09-27T12:21:52.267Z,21.79
2016-09-27T12:22:37.667Z,21.68
2016-09-27T12:23:37.648Z,21.72
2016-09-27T12:24:37.419Z,21.8
2016-09-27T12:25:37.447Z,21.92
2016-09-27T12:26:37.478Z,21.94
2016-09-27T12:27:37.499Z,22.02
2016-09-27T12:28:37.532Z,22.1
2016-09-27T12:29:37.560Z,22
2016-09-27T12:30:37.583Z,21.88
2016-09-27T12:31:37.615Z,21.8
2016-09-27T12:32:37.632Z,21.65
2016-09-27T12:33:52.586Z,21.59
2016-09-27T12:36:37.897Z,21.82
2016-09-27T12:37:52.701Z,21.79
2016-09-27T12:38:37.796Z,21.82
2016-09-27T12:39:37.834Z,21.61
2016-09-27T12:40:37.859Z,21.62
2016-09-27T12:41:37.882Z,21.54
2016-09-27T12:42:37.910Z,21.72
2016-09-27T12:44:37.974Z,21.75
2016-09-27T12:45:37.990Z,21.69
2016-09-27T12:46:38.022Z,21.88
2016-09-27T12:47:38.048Z,21.88
2016-09-27T12:48:38.069Z,21.71
2016-09-27T12:50:53.051Z,21.67
2016-09-27T12:51:38.155Z,21.83
2016-09-27T12:52:38.183Z,21.88
2016-09-27T12:53:53.135Z,21.88
2016-09-27T12:54:38.237Z,21.79
2016-09-27T12:55:38.277Z,21.71
2016-09-27T12:56:38.286Z,21.62
2016-09-27T12:57:38.317Z,21.58
2016-09-27T12:58:38.345Z,21.62
2016-09-27T12:59:38.382Z,21.62
2016-09-27T13:00:38.404Z,21.68
2016-09-27T13:01:38.426Z,21.82
2016-09-27T13:02:38.451Z,21.83
2016-09-27T13:03:38.482Z,21.91
2016-09-27T13:04:38.502Z,22.03
2016-09-27T13:05:53.459Z,22.05
2016-09-27T13:06:38.563Z,22.03
2016-09-27T13:08:53.540Z,22.14
2016-09-27T13:09:38.643Z,22.31
2016-09-27T13:10:38.673Z,22.33
2016-09-27T13:11:38.699Z,22.33
2016-09-27T13:12:38.720Z,22.17
2016-09-27T13:13:38.751Z,22
2016-09-27T13:14:38.788Z,22.17
2016-09-27T13:15:38.808Z,22.24
2016-09-27T13:16:38.832Z,22.35
2016-09-27T13:17:38.855Z,22.49
2016-09-27T13:18:38.895Z,22.47
2016-09-27T13:19:38.916Z,22.52
2016-09-27T13:20:38.937Z,22.46
2016-09-27T13:21:53.896Z,22.6
2016-09-27T13:22:53.920Z,22.58
2016-09-27T13:23:39.025Z,22.54
2016-09-27T13:24:39.055Z,22.39
2016-09-27T13:25:54.002Z,22.25
2016-09-27T13:26:54.043Z,22.21
2016-09-27T13:27:39.130Z,22.27
2016-09-27T13:28:39.462Z,22.3
2016-09-27T13:29:39.190Z,22.25
2016-09-27T13:30:39.216Z,22.27
2016-09-27T13:31:39.244Z,22.17
2016-09-27T13:32:39.273Z,22.2
2016-09-27T13:33:39.295Z,22.24
2016-09-27T13:34:39.317Z,22.3
2016-09-27T13:35:39.350Z,22.35
2016-09-27T13:36:39.389Z,22.31
2016-09-27T13:37:39.706Z,22.25
2016-09-27T13:39:39.467Z,22.21
2016-09-27T13:40:54.413Z,22.06
2016-09-27T13:42:39.544Z,22.24
2016-09-27T13:43:39.570Z,22.27
2016-09-27T13:44:39.598Z,22.25
2016-09-27T13:45:39.627Z,22.28
2016-09-27T13:46:39.651Z,22.25
2016-09-27T13:47:39.677Z,22.27
2016-09-27T13:48:39.704Z,22.27
2016-09-27T13:49:39.733Z,22.27
2016-09-27T13:50:39.756Z,22.22
2016-09-27T13:51:39.783Z,22.17
2016-09-27T13:53:39.845Z,22.14
2016-09-27T13:54:39.868Z,22.12
2016-09-27T13:55:39.895Z,22.24